Time,TemperatureF,DewpointF,PressureIn,WindDirection,WindDirectionDegrees,WindSpeedMPH,WindSpeedGustMPH,Humidity,HourlyPrecipIn,Conditions,Clouds,dailyrainin,SoftwareType,DateUTC
2013-03-01 00:00:00,49.0,34.0,30.10,NNW,330,15.0,16.0,55,-99.99,,,-99.99,,2013-03-01 06:00:00,
2013-03-01 00:21:00,49.0,34.0,30.10,NNW,330,15.0,16.0,55,-99.99,,,-99.99,,2013-03-01 06:21:00,
2013-03-01 00:31:00,49.0,34.0,30.10,NNW,330,15.0,16.0,55,-99.99,,,-99.99,,2013-03-01 06:31:00,
2013-03-01 00:41:00,49.0,34.0,30.10,NNW,330,15.0,16.0,55,-99.99,,,-99.99,,2013-03-01 06:41:00,
2013-03-01 00:52:00,49.0,34.0,30.10,NNW,330,15.0,16.0,55,-99.99,,,-99.99,,2013-03-01 06:52:00,
2013-03-01 01:00:00,49.0,34.0,30.09,NNW,330,13.0,15.0,57,-99.99,,,-99.99,,2013-03-01 07:00:00,
2013-03-01 01:21:00,49.0,34.0,30.09,NNW,330,13.0,15.0,57,-99.99,,,-99.99,,2013-03-01 07:21:00,
2013-03-01 01:31:00,49.0,34.0,30.09,NNW,330,13.0,15.0,57,-99.99,,,-99.99,,2013-03-01 07:31:00,
2013-03-01 01:41:00,49.0,34.0,30.09,NNW,330,13.0,15.0,57,-99.99,,,-99.99,,2013-03-01 07:41:00,
2013-03-01 01:51:00,49.0,34.0,30.09,NNW,330,13.0,15.0,57,-99.99,,,-99.99,,2013-03-01 07:51:00,
2013-03-01 02:00:00,48.0,35.0,30.09,NNW,340,14.0,15.0,60,-99.99,,,-99.99,,2013-03-01 08:00:00,
2013-03-01 02:21:00,48.0,35.0,30.09,NNW,340,14.0,15.0,60,-99.99,,,-99.99,,2013-03-01 08:21:00,
2013-03-01 02:31:00,48.0,35.0,30.09,NNW,340,14.0,15.0,60,-99.99,,,-99.99,,2013-03-01 08:31:00,
2013-03-01 02:42:00,48.0,35.0,30.09,NNW,340,14.0,15.0,60,-99.99,,,-99.99,,2013-03-01 08:42:00,
2013-03-01 02:52:00,48.0,35.0,30.09,NNW,340,14.0,15.0,60,-99.99,,,-99.99,,2013-03-01 08:52:00,
2013-03-01 03:00:00,47.0,36.0,30.07,NNW,340,13.0,14.0,64,-99.99,,,-99.99,,2013-03-01 09:00:00,
2013-03-01 03:21:00,47.0,36.0,30.07,NNW,340,13.0,14.0,64,-99.99,,,-99.99,,2013-03-01 09:21:00,
2013-03-01 03:31:00,47.0,36.0,30.07,NNW,340,13.0,14.0,64,-99.99,,,-99.99,,2013-03-01 09:31:00,
2013-03-01 03:41:00,47.0,36.0,30.07,NNW,340,13.0,14.0,64,-99.99,,,-99.99,,2013-03-01 09:41:00,
2013-03-01 03:51:00,47.0,36.0,30.07,NNW,340,13.0,14.0,64,-99.99,,,-99.99,,2013-03-01 09:51:00,
2013-03-01 04:00:00,47.0,38.0,30.08,North,350,10.0,11.0,69,-99.99,,,-99.99,,2013-03-01 10:00:00,
2013-03-01 04:21:00,47.0,38.0,30.08,North,350,10.0,11.0,69,-99.99,,,-99.99,,2013-03-01 10:21:00,
2013-03-01 04:31:00,47.0,38.0,30.08,North,350,10.0,11.0,69,-99.99,,,-99.99,,2013-03-01 10:31:00,
2013-03-01 04:41:00,47.0,38.0,30.08,North,350,10.0,11.0,69,-99.99,,,-99.99,,2013-03-01 10:41:00,
2013-03-01 04:51:00,47.0,38.0,30.08,North,350,10.0,11.0,69,-99.99,,,-99.99,,2013-03-01 10:51:00,
2013-03-01 05:00:00,47.0,36.0,30.09,NNE,20,11.0,13.0,65,-99.99,,,-99.99,,2013-03-01 11:00:00,
2013-03-01 05:22:00,47.0,36.0,30.09,NNE,20,11.0,13.0,65,-99.99,,,-99.99,,2013-03-01 11:22:00,
2013-03-01 05:31:00,47.0,36.0,30.09,NNE,20,11.0,13.0,65,-99.99,,,-99.99,,2013-03-01 11:31:00,
2013-03-01 05:41:00,47.0,36.0,30.09,NNE,20,11.0,13.0,65,-99.99,,,-99.99,,2013-03-01 11:41:00,
2013-03-01 05:52:00,47.0,36.0,30.09,NNE,20,11.0,13.0,65,-99.99,,,-99.99,,2013-03-01 11:52:00,
2013-03-01 06:00:00,47.0,37.0,30.10,North,10,8.0,10.0,69,-99.99,,,-99.99,,2013-03-01 12:00:00,
2013-03-01 06:21:00,47.0,37.0,30.10,North,10,8.0,10.0,69,-99.99,,,-99.99,,2013-03-01 12:21:00,
2013-03-01 06:32:00,47.0,37.0,30.10,North,10,8.0,10.0,69,-99.99,,,-99.99,,2013-03-01 12:32:00,
2013-03-01 06:41:00,47.0,37.0,30.10,North,10,8.0,10.0,69,-99.99,,,-99.99,,2013-03-01 12:41:00,
2013-03-01 06:51:00,47.0,37.0,30.10,North,10,8.0,10.0,69,-99.99,,,-99.99,,2013-03-01 12:51:00,
2013-03-01 07:00:00,47.0,36.0,30.11,North,360,9.0,10.0,67,-99.99,,,-99.99,,2013-03-01 13:00:00,
2013-03-01 07:21:00,47.0,36.0,30.11,North,360,9.0,10.0,67,-99.99,,,-99.99,,2013-03-01 13:21:00,
2013-03-01 07:32:00,47.0,36.0,30.11,North,360,9.0,10.0,67,-99.99,,,-99.99,,2013-03-01 13:32:00,
2013-03-01 07:41:00,47.0,36.0,30.11,North,360,9.0,10.0,67,-99.99,,,-99.99,,2013-03-01 13:41:00,
2013-03-01 07:51:00,47.0,36.0,30.11,North,360,9.0,10.0,67,-99.99,,,-99.99,,2013-03-01 13:51:00,
2013-03-01 08:00:00,47.0,36.0,30.13,North,350,6.0,7.0,65,-99.99,,,-99.99,,2013-03-01 14:00:00,
2013-03-01 08:21:00,47.0,36.0,30.13,North,350,6.0,7.0,65,-99.99,,,-99.99,,2013-03-01 14:21:00,
2013-03-01 08:31:00,47.0,36.0,30.13,North,350,6.0,7.0,65,-99.99,,,-99.99,,2013-03-01 14:31:00,
2013-03-01 08:41:00,47.0,36.0,30.13,North,350,6.0,7.0,65,-99.99,,,-99.99,,2013-03-01 14:41:00,
2013-03-01 08:52:00,47.0,36.0,30.13,North,350,6.0,7.0,65,-99.99,,,-99.99,,2013-03-01 14:52:00,
2013-03-01 09:00:00,47.0,36.0,30.13,North,360,2.0,5.0,64,-99.99,,,-99.99,,2013-03-01 15:00:00,
2013-03-01 09:21:00,47.0,36.0,30.13,North,360,2.0,5.0,64,-99.99,,,-99.99,,2013-03-01 15:21:00,
2013-03-01 09:31:00,47.0,36.0,30.13,North,360,2.0,5.0,64,-99.99,,,-99.99,,2013-03-01 15:31:00,
2013-03-01 09:42:00,47.0,36.0,30.13,North,360,2.0,5.0,64,-99.99,,,-99.99,,2013-03-01 15:42:00,
2013-03-01 09:51:00,47.0,36.0,30.13,North,360,2.0,5.0,64,-99.99,,,-99.99,,2013-03-01 15:51:00,
2013-03-01 10:00:00,47.0,36.0,30.12,North,360,3.0,5.0,64,-99.99,,,-99.99,,2013-03-01 16:00:00,
2013-03-01 10:21:00,47.0,36.0,30.12,North,360,3.0,5.0,64,-99.99,,,-99.99,,2013-03-01 16:21:00,
2013-03-01 10:31:00,47.0,36.0,30.12,North,360,3.0,5.0,64,-99.99,,,-99.99,,2013-03-01 16:31:00,
2013-03-01 10:41:00,47.0,36.0,30.12,North,360,3.0,5.0,64,-99.99,,,-99.99,,2013-03-01 16:41:00,
2013-03-01 10:51:00,47.0,36.0,30.12,North,360,3.0,5.0,64,-99.99,,,-99.99,,2013-03-01 16:51:00,
2013-03-01 11:00:00,47.0,36.0,30.11,NE,40,2.0,3.0,63,-99.99,,,-99.99,,2013-03-01 17:00:00,
2013-03-01 11:21:00,47.0,36.0,30.11,NE,40,2.0,3.0,63,-99.99,,,-99.99,,2013-03-01 17:21:00,
2013-03-01 11:31:00,47.0,36.0,30.11,NE,40,2.0,3.0,63,-99.99,,,-99.99,,2013-03-01 17:31:00,
2013-03-01 11:41:00,47.0,36.0,30.11,NE,40,2.0,3.0,63,-99.99,,,-99.99,,2013-03-01 17:41:00,
2013-03-01 11:52:00,47.0,36.0,30.11,NE,40,2.0,3.0,63,-99.99,,,-99.99,,2013-03-01 17:52:00,
2013-03-01 12:00:00,48.0,38.0,30.09,SE,140,5.0,6.0,67,-99.99,,,-99.99,,2013-03-01 18:00:00,
2013-03-01 12:21:00,48.0,38.0,30.09,SE,140,5.0,6.0,67,-99.99,,,-99.99,,2013-03-01 18:21:00,
2013-03-01 12:31:00,48.0,38.0,30.09,SE,140,5.0,6.0,67,-99.99,,,-99.99,,2013-03-01 18:31:00,
2013-03-01 12:41:00,48.0,38.0,30.09,SE,140,5.0,6.0,67,-99.99,,,-99.99,,2013-03-01 18:41:00,
2013-03-01 12:52:00,48.0,38.0,30.09,SE,140,5.0,6.0,67,-99.99,,,-99.99,,2013-03-01 18:52:00,
2013-03-01 13:00:00,51.0,35.0,30.06,SSW,210,9.0,13.0,55,-99.99,,,-99.99,,2013-03-01 19:00:00,
2013-03-01 13:21:00,51.0,35.0,30.06,SSW,210,9.0,13.0,55,-99.99,,,-99.99,,2013-03-01 19:21:00,
2013-03-01 13:31:00,51.0,35.0,30.06,SSW,210,9.0,13.0,55,-99.99,,,-99.99,,2013-03-01 19:31:00,
2013-03-01 13:41:00,51.0,35.0,30.06,SSW,210,9.0,13.0,55,-99.99,,,-99.99,,2013-03-01 19:41:00,
2013-03-01 13:51:00,51.0,35.0,30.06,SSW,210,9.0,13.0,55,-99.99,,,-99.99,,2013-03-01 19:51:00,
2013-03-01 14:00:00,52.0,38.0,30.04,SW,230,13.0,17.0,58,-99.99,,,-99.99,,2013-03-01 20:00:00,
2013-03-01 14:21:00,52.0,38.0,30.04,SW,230,13.0,17.0,58,-99.99,,,-99.99,,2013-03-01 20:21:00,
2013-03-01 14:31:00,52.0,38.0,30.04,SW,230,13.0,17.0,58,-99.99,,,-99.99,,2013-03-01 20:31:00,
2013-03-01 14:41:00,52.0,38.0,30.04,SW,230,13.0,17.0,58,-99.99,,,-99.99,,2013-03-01 20:41:00,
2013-03-01 14:51:00,52.0,38.0,30.04,SW,230,13.0,17.0,58,-99.99,,,-99.99,,2013-03-01 20:51:00,
2013-03-01 15:00:00,53.0,38.0,30.01,SW,230,11.0,15.0,55,-99.99,,,-99.99,,2013-03-01 21:00:00,
2013-03-01 15:21:00,53.0,38.0,30.01,SW,230,11.0,15.0,55,-99.99,,,-99.99,,2013-03-01 21:21:00,
2013-03-01 15:31:00,53.0,38.0,30.01,SW,230,11.0,15.0,55,-99.99,,,-99.99,,2013-03-01 21:31:00,
2013-03-01 15:41:00,53.0,38.0,30.01,SW,230,11.0,15.0,55,-99.99,,,-99.99,,2013-03-01 21:41:00,
2013-03-01 15:51:00,53.0,38.0,30.01,SW,230,11.0,15.0,55,-99.99,,,-99.99,,2013-03-01 21:51:00,
2013-03-01 16:00:00,54.0,38.0,30.01,WSW,240,14.0,20.0,55,-99.99,,,-99.99,,2013-03-01 22:00:00,
2013-03-01 16:21:00,54.0,38.0,30.01,WSW,240,14.0,20.0,55,-99.99,,,-99.99,,2013-03-01 22:21:00,
2013-03-01 16:31:00,54.0,38.0,30.01,WSW,240,14.0,20.0,55,-99.99,,,-99.99,,2013-03-01 22:31:00,
2013-03-01 16:41:00,54.0,38.0,30.01,WSW,240,14.0,20.0,55,-99.99,,,-99.99,,2013-03-01 22:41:00,
2013-03-01 16:51:00,54.0,38.0,30.01,WSW,240,14.0,20.0,55,-99.99,,,-99.99,,2013-03-01 22:51:00,
2013-03-01 17:00:00,55.0,39.0,30.01,WSW,250,9.0,13.0,56,-99.99,,,-99.99,,2013-03-01 23:00:00,
2013-03-01 17:21:00,55.0,39.0,30.01,WSW,250,9.0,13.0,56,-99.99,,,-99.99,,2013-03-01 23:21:00,
2013-03-01 17:31:00,55.0,39.0,30.01,WSW,250,9.0,13.0,56,-99.99,,,-99.99,,2013-03-01 23:31:00,
2013-03-01 17:41:00,55.0,39.0,30.01,WSW,250,9.0,13.0,56,-99.99,,,-99.99,,2013-03-01 23:41:00,
2013-03-01 17:52:00,55.0,39.0,30.01,WSW,250,9.0,13.0,56,-99.99,,,-99.99,,2013-03-01 23:52:00,
2013-03-01 18:00:00,55.0,38.0,30.03,West,260,7.0,9.0,52,-99.99,,,-99.99,,2013-03-02 00:00:00,
2013-03-01 18:21:00,55.0,38.0,30.03,West,260,7.0,9.0,52,-99.99,,,-99.99,,2013-03-02 00:21:00,
2013-03-01 18:31:00,55.0,38.0,30.03,West,260,7.0,9.0,52,-99.99,,,-99.99,,2013-03-02 00:31:00,
2013-03-01 18:41:00,55.0,38.0,30.03,West,260,7.0,9.0,52,-99.99,,,-99.99,,2013-03-02 00:41:00,
2013-03-01 18:51:00,55.0,38.0,30.03,West,260,7.0,9.0,52,-99.99,,,-99.99,,2013-03-02 00:51:00,
2013-03-01 19:00:00,55.0,34.0,30.05,NNW,330,16.0,17.0,44,-99.99,,,-99.99,,2013-03-02 01:00:00,
2013-03-01 19:21:00,55.0,34.0,30.05,NNW,330,16.0,17.0,44,-99.99,,,-99.99,,2013-03-02 01:21:00,
2013-03-01 19:31:00,55.0,34.0,30.05,NNW,330,16.0,17.0,44,-99.99,,,-99.99,,2013-03-02 01:31:00,
2013-03-01 19:41:00,55.0,34.0,30.05,NNW,330,16.0,17.0,44,-99.99,,,-99.99,,2013-03-02 01:41:00,
2013-03-01 19:51:00,55.0,34.0,30.05,NNW,330,16.0,17.0,44,-99.99,,,-99.99,,2013-03-02 01:51:00,
2013-03-01 20:00:00,53.0,35.0,30.08,NW,320,18.0,21.0,49,-99.99,,,-99.99,,2013-03-02 02:00:00,
2013-03-01 20:21:00,53.0,35.0,30.08,NW,320,18.0,21.0,49,-99.99,,,-99.99,,2013-03-02 02:21:00,
2013-03-01 20:31:00,53.0,35.0,30.08,NW,320,18.0,21.0,49,-99.99,,,-99.99,,2013-03-02 02:31:00,
2013-03-01 20:41:00,53.0,35.0,30.08,NW,320,18.0,21.0,49,-99.99,,,-99.99,,2013-03-02 02:41:00,
2013-03-01 20:52:00,53.0,35.0,30.08,NW,320,18.0,21.0,49,-99.99,,,-99.99,,2013-03-02 02:52:00,
2013-03-01 21:00:00,51.0,34.0,30.11,NNW,330,21.0,23.0,52,-99.99,,,-99.99,,2013-03-02 03:00:00,
2013-03-01 21:21:00,51.0,34.0,30.11,NNW,330,21.0,23.0,52,-99.99,,,-99.99,,2013-03-02 03:21:00,
2013-03-01 21:31:00,51.0,34.0,30.11,NNW,330,21.0,23.0,52,-99.99,,,-99.99,,2013-03-02 03:31:00,
2013-03-01 21:41:00,51.0,34.0,30.11,NNW,330,21.0,23.0,52,-99.99,,,-99.99,,2013-03-02 03:41:00,
2013-03-01 21:52:00,51.0,34.0,30.11,NNW,330,21.0,23.0,52,-99.99,,,-99.99,,2013-03-02 03:52:00,
2013-03-01 22:00:00,48.0,35.0,30.14,NNW,330,24.0,28.0,58,-99.99,,,-99.99,,2013-03-02 04:00:00,
2013-03-01 22:21:00,48.0,35.0,30.14,NNW,330,24.0,28.0,58,-99.99,,,-99.99,,2013-03-02 04:21:00,
2013-03-01 22:31:00,48.0,35.0,30.14,NNW,330,24.0,28.0,58,-99.99,,,-99.99,,2013-03-02 04:31:00,
2013-03-01 22:41:00,48.0,35.0,30.14,NNW,330,24.0,28.0,58,-99.99,,,-99.99,,2013-03-02 04:41:00,
2013-03-01 22:51:00,48.0,35.0,30.14,NNW,330,24.0,28.0,58,-99.99,,,-99.99,,2013-03-02 04:51:00,
2013-03-01 23:00:00,46.0,32.0,30.15,NNW,340,21.0,22.0,58,-99.99,,,-99.99,,2013-03-02 05:00:00,
2013-03-01 23:22:00,46.0,32.0,30.15,NNW,340,21.0,22.0,58,-99.99,,,-99.99,,2013-03-02 05:22:00,
2013-03-01 23:31:00,46.0,32.0,30.15,NNW,340,21.0,22.0,58,-99.99,,,-99.99,,2013-03-02 05:31:00,
2013-03-01 23:41:00,46.0,32.0,30.15,NNW,340,21.0,22.0,58,-99.99,,,-99.99,,2013-03-02 05:41:00,
2013-03-01 23:51:00,46.0,32.0,30.15,NNW,340,21.0,22.0,58,-99.99,,,-99.99,,2013-03-02 05:51:00,